Storm Events Database

Event Details

Event Hail
Magnitude 1.75 in.
State NEBRASKA
County/Area LOUP
WFO LBF
Begin Date 05/06/2008 17:00:00 CST-6
Begin Range 15
Begin Azimuth NNE
Begin Location ALMERIA
Begin Lat/Lon 42.03/-99.41
End Date 05/06/2008 17:00:00 CST-6
Deaths Direct/Indirect 0/0 (fatality details below, when available...)
Injuries Direct/Indirect 0/0
Property Damage 1.50K
Crop Damage 0.00K
Episode Narrative An approaching cold front and upper level disturbance encountered rich low level moisture, resulting in the development of supercell thunderstorms across portions of southwest into north central Nebraska.
Event Narrative


All events for this episode:

Location County/Zone St. Date Time T.Z. Type Mag Dth Inj PrD CrD
Totals: 0 0 148.00K 0.00K
SUTHERLAND LINCOLN CO. NE 05/06/2008 14:13 CST-6 Hail 0.75 in. 0 0 0.00K 0.00K
GRANT PERKINS CO. NE 05/06/2008 14:18 MST-7 Hail 1.00 in. 0 0 0.00K 0.00K
WOOD LAKE CHERRY CO. NE 05/06/2008 14:30 CST-6 Hail 1.75 in. 0 0 1.00K 0.00K
MADRID PERKINS CO. NE 05/06/2008 14:35 MST-7 Hail 1.00 in. 0 0 0.00K 0.00K
SUTHERLAND LINCOLN CO. NE 05/06/2008 14:49 CST-6 Hail 0.75 in. 0 0 0.00K 0.00K
SUTHERLAND LINCOLN CO. NE 05/06/2008 14:55 CST-6 Hail 0.75 in. 0 0 0.00K 0.00K
AINSWORTH BROWN CO. NE 05/06/2008 14:55 CST-6 Hail 1.00 in. 0 0 0.00K 0.00K
NORTH PLATTE LINCOLN CO. NE 05/06/2008 15:19 CST-6 Hail 0.75 in. 0 0 0.00K 0.00K
NORTH PLATTE LINCOLN CO. NE 05/06/2008 15:29 CST-6 Hail 1.00 in. 0 0 0.00K 0.00K
MAXWELL LINCOLN CO. NE 05/06/2008 15:33 CST-6 Hail 1.00 in. 0 0 0.00K 0.00K
(LBF)BIRD FLD NORTH LINCOLN CO. NE 05/06/2008 15:35 CST-6 Hail 0.75 in. 0 0 0.00K 0.00K
ROSE ROCK CO. NE 05/06/2008 15:35 CST-6 Hail 1.00 in. 0 0 0.00K 0.00K
ROSE ROCK CO. NE 05/06/2008 16:00 CST-6 Hail 2.50 in. 0 0 0.00K 0.00K
SWAN LAKE HOLT CO. NE 05/06/2008 16:05 CST-6 Hail 1.00 in. 0 0 1.00K 0.00K
ROSE ROCK CO. NE 05/06/2008 16:10 CST-6 Hail 4.25 in. 0 0 2.00K 0.00K
WALLACE LINCOLN CO. NE 05/06/2008 16:10 CST-6 Hail 1.50 in. 0 0 0.00K 0.00K
SWAN LAKE HOLT CO. NE 05/06/2008 16:15 CST-6 Hail 1.25 in. 0 0 1.00K 0.00K
LONG PINE BROWN CO. NE 05/06/2008 16:20 CST-6 Hail 1.00 in. 0 0 0.00K 0.00K
SARGENT CUSTER CO. NE 05/06/2008 16:30 CST-6 Hail 0.75 in. 0 0 0.00K 0.00K
ROSE ROCK CO. NE 05/06/2008 16:34 CST-6 Hail 0.75 in. 0 0 0.00K 0.00K
BARTLETT WHEELER CO. NE 05/06/2008 16:54 CST-6 Thunderstorm Wind 61 kts. EG 0 0 140.00K 0.00K
BURWELL GARFIELD CO. NE 05/06/2008 16:54 CST-6 Hail 1.75 in. 0 0 1.50K 0.00K
OCONTO CUSTER CO. NE 05/06/2008 16:55 CST-6 Hail 0.75 in. 0 0 0.00K 0.00K
BRADY LINCOLN CO. NE 05/06/2008 17:00 CST-6 Hail 1.00 in. 0 0 0.00K 0.00K
ALMERIA LOUP CO. NE 05/06/2008 17:00 CST-6 Hail 1.75 in. 0 0 1.50K 0.00K
BURWELL GARFIELD CO. NE 05/06/2008 17:05 CST-6 Hail 0.75 in. 0 0 0.00K 0.00K
BARTLETT WHEELER CO. NE 05/06/2008 17:05 CST-6 Hail 0.75 in. 0 0 0.00K 0.00K
WELLFLEET LINCOLN CO. NE 05/06/2008 17:27 CST-6 Hail 0.75 in. 0 0 0.00K 0.00K
MAYWOOD FRONTIER CO. NE 05/06/2008 17:30 CST-6 Tornado EF0 0 0 0.00K 0.00K
HAMLET HAYES CO. NE 05/06/2008 17:35 CST-6 Hail 0.75 in. 0 0 0.00K 0.00K
HAYES CENTER HAYES CO. NE 05/06/2008 18:00 CST-6 Hail 0.75 in. 0 0 0.00K 0.00K
CURTIS FRONTIER CO. NE 05/06/2008 18:17 CST-6 Hail 0.88 in. 0 0 0.00K 0.00K
STOCKVILLE FRONTIER CO. NE 05/06/2008 18:25 CST-6 Hail 0.75 in. 0 0 0.00K 0.00K
EUSTIS FRONTIER CO. NE 05/06/2008 18:32 CST-6 Hail 0.88 in. 0 0 0.00K 0.00K
STOCKVILLE FRONTIER CO. NE 05/06/2008 18:32 CST-6 Funnel Cloud 0 0 0.00K 0.00K
Totals: 0 0 148.00K 0.00K